sensor_id;sensor_type;location;lat;lon;timestamp;temperature;humidity
17341;DHT22;8788;49.930;8.660;2022-10-23T04:04:59;12.80;99.90
17341;DHT22;8788;49.930;8.660;2022-10-23T04:07:28;12.70;99.90
17341;DHT22;8788;49.930;8.660;2022-10-23T04:09:58;12.80;99.90
17341;DHT22;8788;49.930;8.660;2022-10-23T04:12:25;12.80;99.90
17341;DHT22;8788;49.930;8.660;2022-10-23T04:14:52;12.80;99.90
17341;DHT22;8788;49.930;8.660;2022-10-23T04:17:20;12.70;99.90
17341;DHT22;8788;49.930;8.660;2022-10-23T04:19:48;12.70;99.90
17341;DHT22;8788;49.930;8.660;2022-10-23T04:22:17;12.70;99.90
17341;DHT22;8788;49.930;8.660;2022-10-23T04:24:44;12.60;99.90
17341;DHT22;8788;49.930;8.660;2022-10-23T04:27:17;12.60;99.90
17341;DHT22;8788;49.930;8.660;2022-10-23T04:29:44;12.60;99.90
17341;DHT22;8788;49.930;8.660;2022-10-23T04:32:11;12.60;99.90
17341;DHT22;8788;49.930;8.660;2022-10-23T04:34:39;12.60;99.90
17341;DHT22;8788;49.930;8.660;2022-10-23T04:37:06;12.60;99.90
17341;DHT22;8788;49.930;8.660;2022-10-23T04:39:34;12.60;99.90
17341;DHT22;8788;49.930;8.660;2022-10-23T04:42:01;12.70;99.90
17341;DHT22;8788;49.930;8.660;2022-10-23T04:44:28;12.60;99.90
17341;DHT22;8788;49.930;8.660;2022-10-23T04:46:55;12.60;99.90
17341;DHT22;8788;49.930;8.660;2022-10-23T04:49:23;12.60;99.90
17341;DHT22;8788;49.930;8.660;2022-10-23T04:52:09;12.60;99.90
17341;DHT22;8788;49.930;8.660;2022-10-23T04:54:47;12.60;99.90
17341;DHT22;8788;49.930;8.660;2022-10-23T04:57:30;12.60;99.90
17341;DHT22;8788;49.930;8.660;2022-10-23T05:00:00;12.60;99.90
17341;DHT22;8788;49.930;8.660;2022-10-23T05:02:34;12.50;99.90
17341;DHT22;8788;49.930;8.660;2022-10-23T05:05:01;12.50;99.90
17341;DHT22;8788;49.930;8.660;2022-10-23T05:07:48;12.50;99.90
17341;DHT22;8788;49.930;8.660;2022-10-23T05:10:42;12.50;99.90
17341;DHT22;8788;49.930;8.660;2022-10-23T05:13:11;12.50;99.90
17341;DHT22;8788;49.930;8.660;2022-10-23T05:15:39;12.50;99.90
17341;DHT22;8788;49.930;8.660;2022-10-23T05:18:10;12.50;99.90
17341;DHT22;8788;49.930;8.660;2022-10-23T05:20:39;12.50;99.90
17341;DHT22;8788;49.930;8.660;2022-10-23T05:23:10;12.50;99.90
17341;DHT22;8788;49.930;8.660;2022-10-23T05:25:41;12.50;99.90
17341;DHT22;8788;49.930;8.660;2022-10-23T05:28:15;12.50;99.90
17341;DHT22;8788;49.930;8.660;2022-10-23T05:30:42;12.50;99.90
17341;DHT22;8788;49.930;8.660;2022-10-23T05:33:09;12.50;99.90
17341;DHT22;8788;49.930;8.660;2022-10-23T05:35:41;12.50;99.90
17341;DHT22;8788;49.930;8.660;2022-10-23T05:38:12;12.50;99.90
17341;DHT22;8788;49.930;8.660;2022-10-23T05:40:39;12.50;99.90
17341;DHT22;8788;49.930;8.660;2022-10-23T05:43:13;12.40;99.90
17341;DHT22;8788;49.930;8.660;2022-10-23T05:45:58;12.40;99.90
17341;DHT22;8788;49.930;8.660;2022-10-23T05:48:49;12.40;99.90
17341;DHT22;8788;49.930;8.660;2022-10-23T05:51:35;12.40;99.90
17341;DHT22;8788;49.930;8.660;2022-10-23T05:54:21;12.40;99.90
17341;DHT22;8788;49.930;8.660;2022-10-23T05:57:08;12.40;99.90
17341;DHT22;8788;49.930;8.660;2022-10-23T05:59:49;12.40;99.90
17341;DHT22;8788;49.930;8.660;2022-10-23T06:02:25;12.40;99.90
17341;DHT22;8788;49.930;8.660;2022-10-23T06:04:59;12.30;99.90
17341;DHT22;8788;49.930;8.660;2022-10-23T06:07:56;12.30;99.90
17341;DHT22;8788;49.930;8.660;2022-10-23T06:10:24;12.20;99.90
17341;DHT22;8788;49.930;8.660;2022-10-23T06:12:52;12.20;99.90
17341;DHT22;8788;49.930;8.660;2022-10-23T06:15:21;12.20;99.90
17341;DHT22;8788;49.930;8.660;2022-10-23T06:17:59;12.30;99.90
17341;DHT22;8788;49.930;8.660;2022-10-23T06:20:28;12.30;99.90
17341;DHT22;8788;49.930;8.660;2022-10-23T06:23:05;12.30;99.90
17341;DHT22;8788;49.930;8.660;2022-10-23T06:25:55;12.20;99.90
17341;DHT22;8788;49.930;8.660;2022-10-23T06:28:34;12.30;99.90
17341;DHT22;8788;49.930;8.660;2022-10-23T06:31:05;12.30;99.90
17341;DHT22;8788;49.930;8.660;2022-10-23T06:33:32;12.30;99.90
17341;DHT22;8788;49.930;8.660;2022-10-23T06:36:03;12.30;99.90
17341;DHT22;8788;49.930;8.660;2022-10-23T06:38:31;12.40;99.90
17341;DHT22;8788;49.930;8.660;2022-10-23T06:41:03;12.40;99.90
17341;DHT22;8788;49.930;8.660;2022-10-23T06:43:35;12.50;99.90
17341;DHT22;8788;49.930;8.660;2022-10-23T06:46:16;12.50;99.90
17341;DHT22;8788;49.930;8.660;2022-10-23T06:49:02;12.50;99.90
17341;DHT22;8788;49.930;8.660;2022-10-23T06:51:34;12.50;99.90
17341;DHT22;8788;49.930;8.660;2022-10-23T06:54:03;12.60;99.90
17341;DHT22;8788;49.930;8.660;2022-10-23T06:56:48;12.50;99.90
17341;DHT22;8788;49.930;8.660;2022-10-23T06:59:31;12.60;99.90
17341;DHT22;8788;49.930;8.660;2022-10-23T07:01:59;12.60;99.90
17341;DHT22;8788;49.930;8.660;2022-10-23T07:04:27;12.60;99.90
17341;DHT22;8788;49.930;8.660;2022-10-23T07:06:54;12.70;99.90
17341;DHT22;8788;49.930;8.660;2022-10-23T07:09:27;12.80;99.90
17341;DHT22;8788;49.930;8.660;2022-10-23T07:11:55;12.80;99.90
17341;DHT22;8788;49.930;8.660;2022-10-23T07:14:38;12.80;99.90
17341;DHT22;8788;49.930;8.660;2022-10-23T07:17:07;12.90;99.90
17341;DHT22;8788;49.930;8.660;2022-10-23T07:19:34;13.00;99.90
17341;DHT22;8788;49.930;8.660;2022-10-23T07:22:08;13.10;99.90
17341;DHT22;8788;49.930;8.660;2022-10-23T07:24:58;13.10;99.90
17341;DHT22;8788;49.930;8.660;2022-10-23T07:27:30;13.20;99.90
17341;DHT22;8788;49.930;8.660;2022-10-23T07:30:00;13.30;99.90
17341;DHT22;8788;49.930;8.660;2022-10-23T07:32:33;13.40;99.90
17341;DHT22;8788;49.930;8.660;2022-10-23T07:35:10;13.40;99.90
17341;DHT22;8788;49.930;8.660;2022-10-23T07:37:41;13.50;99.90
17341;DHT22;8788;49.930;8.660;2022-10-23T07:40:09;13.50;99.90
17341;DHT22;8788;49.930;8.660;2022-10-23T07:42:42;13.50;99.90
17341;DHT22;8788;49.930;8.660;2022-10-23T07:45:10;13.60;99.90
17341;DHT22;8788;49.930;8.660;2022-10-23T07:47:41;13.70;99.90
17341;DHT22;8788;49.930;8.660;2022-10-23T07:50:11;13.80;99.90
17341;DHT22;8788;49.930;8.660;2022-10-23T07:52:38;13.90;99.90
17341;DHT22;8788;49.930;8.660;2022-10-23T07:55:10;14.00;99.90
17341;DHT22;8788;49.930;8.660;2022-10-23T07:57:44;14.10;99.90
17341;DHT22;8788;49.930;8.660;2022-10-23T08:00:53;14.20;99.90
17341;DHT22;8788;49.930;8.660;2022-10-23T08:03:31;14.40;99.90
17341;DHT22;8788;49.930;8.660;2022-10-23T08:06:00;14.50;99.90
17341;DHT22;8788;49.930;8.660;2022-10-23T08:08:27;14.70;99.90
17341;DHT22;8788;49.930;8.660;2022-10-23T08:11:00;14.80;99.90
17341;DHT22;8788;49.930;8.660;2022-10-23T08:13:33;14.90;99.90
17341;DHT22;8788;49.930;8.660;2022-10-23T08:16:04;15.00;99.90
17341;DHT22;8788;49.930;8.660;2022-10-23T08:18:52;15.10;99.90
17341;DHT22;8788;49.930;8.660;2022-10-23T08:21:20;15.20;99.90
17341;DHT22;8788;49.930;8.660;2022-10-23T08:23:48;15.30;99.90
17341;DHT22;8788;49.930;8.660;2022-10-23T08:26:15;15.40;99.90
17341;DHT22;8788;49.930;8.660;2022-10-23T08:28:42;15.40;99.90
17341;DHT22;8788;49.930;8.660;2022-10-23T08:31:12;15.40;99.90
17341;DHT22;8788;49.930;8.660;2022-10-23T08:33:42;15.50;99.90
17341;DHT22;8788;49.930;8.660;2022-10-23T08:36:18;15.60;99.90
17341;DHT22;8788;49.930;8.660;2022-10-23T08:38:45;15.70;99.90
17341;DHT22;8788;49.930;8.660;2022-10-23T08:41:23;15.80;99.90
17341;DHT22;8788;49.930;8.660;2022-10-23T08:44:01;15.90;99.90
17341;DHT22;8788;49.930;8.660;2022-10-23T08:46:40;16.00;99.90
17341;DHT22;8788;49.930;8.660;2022-10-23T08:49:26;16.00;99.90
17341;DHT22;8788;49.930;8.660;2022-10-23T08:52:10;16.10;99.90
17341;DHT22;8788;49.930;8.660;2022-10-23T08:54:44;16.20;99.90
17341;DHT22;8788;49.930;8.660;2022-10-23T08:57:15;16.30;99.90
17341;DHT22;8788;49.930;8.660;2022-10-23T08:59:46;16.40;99.90
17341;DHT22;8788;49.930;8.660;2022-10-23T09:02:18;16.40;99.90
17341;DHT22;8788;49.930;8.660;2022-10-23T09:04:48;16.50;99.90
17341;DHT22;8788;49.930;8.660;2022-10-23T09:07:26;16.60;99.90
17341;DHT22;8788;49.930;8.660;2022-10-23T09:12:58;16.60;99.90
17341;DHT22;8788;49.930;8.660;2022-10-23T09:15:32;16.60;99.90
17341;DHT22;8788;49.930;8.660;2022-10-23T09:18:09;16.60;99.90
17341;DHT22;8788;49.930;8.660;2022-10-23T09:20:39;16.60;99.90
17341;DHT22;8788;49.930;8.660;2022-10-23T09:23:14;16.60;99.90
17341;DHT22;8788;49.930;8.660;2022-10-23T09:25:42;16.60;99.90
17341;DHT22;8788;49.930;8.660;2022-10-23T09:28:17;16.60;99.90
17341;DHT22;8788;49.930;8.660;2022-10-23T09:30:45;16.70;99.90
17341;DHT22;8788;49.930;8.660;2022-10-23T09:33:14;16.80;99.90
17341;DHT22;8788;49.930;8.660;2022-10-23T09:35:52;16.90;99.90
17341;DHT22;8788;49.930;8.660;2022-10-23T09:38:27;17.00;99.90
17341;DHT22;8788;49.930;8.660;2022-10-23T09:40:55;17.10;99.90
17341;DHT22;8788;49.930;8.660;2022-10-23T09:43:22;17.20;99.90
17341;DHT22;8788;49.930;8.660;2022-10-23T09:45:58;17.20;99.90
17341;DHT22;8788;49.930;8.660;2022-10-23T09:48:26;17.20;99.90
17341;DHT22;8788;49.930;8.660;2022-10-23T09:50:54;17.20;99.90
17341;DHT22;8788;49.930;8.660;2022-10-23T09:53:30;17.20;99.90
17341;DHT22;8788;49.930;8.660;2022-10-23T09:56:01;17.10;99.90
17341;DHT22;8788;49.930;8.660;2022-10-23T09:58:31;17.10;99.90
17341;DHT22;8788;49.930;8.660;2022-10-23T10:00:59;17.20;99.90
17341;DHT22;8788;49.930;8.660;2022-10-23T10:03:51;17.20;99.90
17341;DHT22;8788;49.930;8.660;2022-10-23T10:06:24;17.20;99.90
17341;DHT22;8788;49.930;8.660;2022-10-23T10:08:55;17.30;99.90
17341;DHT22;8788;49.930;8.660;2022-10-23T10:11:28;17.30;99.90
17341;DHT22;8788;49.930;8.660;2022-10-23T10:14:14;17.30;99.90
17341;DHT22;8788;49.930;8.660;2022-10-23T10:16:50;17.30;99.90
17341;DHT22;8788;49.930;8.660;2022-10-23T10:19:38;17.30;99.90
17341;DHT22;8788;49.930;8.660;2022-10-23T10:22:27;17.30;99.90
17341;DHT22;8788;49.930;8.660;2022-10-23T10:25:02;17.30;99.90
17341;DHT22;8788;49.930;8.660;2022-10-23T10:27:42;17.30;99.90
17341;DHT22;8788;49.930;8.660;2022-10-23T10:30:13;17.30;99.90
17341;DHT22;8788;49.930;8.660;2022-10-23T10:32:45;17.30;99.90
17341;DHT22;8788;49.930;8.660;2022-10-23T10:35:36;17.30;99.90
17341;DHT22;8788;49.930;8.660;2022-10-23T10:38:27;17.30;99.90
17341;DHT22;8788;49.930;8.660;2022-10-23T10:41:20;17.30;99.90
17341;DHT22;8788;49.930;8.660;2022-10-23T10:43:57;17.30;99.90
17341;DHT22;8788;49.930;8.660;2022-10-23T10:46:30;17.30;99.90
17341;DHT22;8788;49.930;8.660;2022-10-23T10:49:03;17.30;99.90
17341;DHT22;8788;49.930;8.660;2022-10-23T10:51:39;17.30;99.90
17341;DHT22;8788;49.930;8.660;2022-10-23T10:54:20;17.30;99.90
17341;DHT22;8788;49.930;8.660;2022-10-23T10:56:52;17.40;99.90
17341;DHT22;8788;49.930;8.660;2022-10-23T10:59:23;17.40;99.90
17341;DHT22;8788;49.930;8.660;2022-10-23T11:01:54;17.50;99.90
17341;DHT22;8788;49.930;8.660;2022-10-23T11:04:30;17.50;99.90
17341;DHT22;8788;49.930;8.660;2022-10-23T11:07:06;17.60;99.90
17341;DHT22;8788;49.930;8.660;2022-10-23T11:09:33;17.70;99.90
17341;DHT22;8788;49.930;8.660;2022-10-23T11:12:02;17.90;99.90
17341;DHT22;8788;49.930;8.660;2022-10-23T11:14:31;18.00;99.90
17341;DHT22;8788;49.930;8.660;2022-10-23T11:17:02;18.30;99.90
17341;DHT22;8788;49.930;8.660;2022-10-23T11:19:34;18.60;99.90
17341;DHT22;8788;49.930;8.660;2022-10-23T11:22:09;18.70;99.90
17341;DHT22;8788;49.930;8.660;2022-10-23T11:25:09;18.80;99.90
17341;DHT22;8788;49.930;8.660;2022-10-23T11:28:00;19.00;99.90
17341;DHT22;8788;49.930;8.660;2022-10-23T11:30:42;19.20;99.90
17341;DHT22;8788;49.930;8.660;2022-10-23T11:33:39;19.20;99.90
17341;DHT22;8788;49.930;8.660;2022-10-23T11:36:14;19.20;99.90
17341;DHT22;8788;49.930;8.660;2022-10-23T11:38:44;19.50;99.90
17341;DHT22;8788;49.930;8.660;2022-10-23T11:41:20;19.70;99.90
17341;DHT22;8788;49.930;8.660;2022-10-23T11:43:51;19.80;99.90
17341;DHT22;8788;49.930;8.660;2022-10-23T11:46:30;19.90;99.90
17341;DHT22;8788;49.930;8.660;2022-10-23T11:48:58;19.80;99.90
17341;DHT22;8788;49.930;8.660;2022-10-23T11:51:30;19.80;99.90
17341;DHT22;8788;49.930;8.660;2022-10-23T11:54:06;19.70;99.90
17341;DHT22;8788;49.930;8.660;2022-10-23T11:56:34;19.60;99.90
17341;DHT22;8788;49.930;8.660;2022-10-23T11:59:20;19.70;99.90
17341;DHT22;8788;49.930;8.660;2022-10-23T12:01:50;19.80;99.90
17341;DHT22;8788;49.930;8.660;2022-10-23T12:04:22;20.00;99.90
17341;DHT22;8788;49.930;8.660;2022-10-23T12:06:52;20.30;99.90
17341;DHT22;8788;49.930;8.660;2022-10-23T12:09:24;20.50;99.90
17341;DHT22;8788;49.930;8.660;2022-10-23T12:12:14;20.80;99.90
17341;DHT22;8788;49.930;8.660;2022-10-23T12:14:44;21.10;99.90
17341;DHT22;8788;49.930;8.660;2022-10-23T12:17:28;21.20;99.90
17341;DHT22;8788;49.930;8.660;2022-10-23T12:20:03;21.40;99.90
17341;DHT22;8788;49.930;8.660;2022-10-23T12:22:44;21.40;99.90
17341;DHT22;8788;49.930;8.660;2022-10-23T12:25:14;21.40;99.90
17341;DHT22;8788;49.930;8.660;2022-10-23T12:27:49;21.40;99.90
17341;DHT22;8788;49.930;8.660;2022-10-23T12:30:22;21.50;99.90
17341;DHT22;8788;49.930;8.660;2022-10-23T12:33:10;21.50;99.90
17341;DHT22;8788;49.930;8.660;2022-10-23T12:38:43;21.60;99.90
17341;DHT22;8788;49.930;8.660;2022-10-23T12:41:14;21.70;99.90
17341;DHT22;8788;49.930;8.660;2022-10-23T12:43:50;21.80;99.90
17341;DHT22;8788;49.930;8.660;2022-10-23T12:46:29;21.80;99.90
17341;DHT22;8788;49.930;8.660;2022-10-23T12:48:58;21.70;99.90
17341;DHT22;8788;49.930;8.660;2022-10-23T12:51:27;21.70;99.90
17341;DHT22;8788;49.930;8.660;2022-10-23T12:53:55;21.60;99.90
17341;DHT22;8788;49.930;8.660;2022-10-23T12:56:23;21.50;99.90
17341;DHT22;8788;49.930;8.660;2022-10-23T12:58:53;21.50;99.90
17341;DHT22;8788;49.930;8.660;2022-10-23T13:01:23;21.50;99.90
17341;DHT22;8788;49.930;8.660;2022-10-23T13:03:56;21.50;99.90
17341;DHT22;8788;49.930;8.660;2022-10-23T13:06:23;21.50;99.90
17341;DHT22;8788;49.930;8.660;2022-10-23T13:08:51;21.50;99.90
17341;DHT22;8788;49.930;8.660;2022-10-23T13:11:34;21.40;99.90
17341;DHT22;8788;49.930;8.660;2022-10-23T13:14:10;21.40;99.90
17341;DHT22;8788;49.930;8.660;2022-10-23T13:16:37;21.40;99.90
17341;DHT22;8788;49.930;8.660;2022-10-23T13:19:20;21.30;99.90
17341;DHT22;8788;49.930;8.660;2022-10-23T13:21:47;21.30;99.90
17341;DHT22;8788;49.930;8.660;2022-10-23T13:24:18;21.40;99.90
17341;DHT22;8788;49.930;8.660;2022-10-23T13:26:47;21.40;99.90
17341;DHT22;8788;49.930;8.660;2022-10-23T13:29:18;21.40;99.90
17341;DHT22;8788;49.930;8.660;2022-10-23T13:31:46;21.50;99.90
17341;DHT22;8788;49.930;8.660;2022-10-23T13:34:26;21.40;99.90
17341;DHT22;8788;49.930;8.660;2022-10-23T13:37:02;21.40;99.90
17341;DHT22;8788;49.930;8.660;2022-10-23T13:39:31;21.30;99.90
17341;DHT22;8788;49.930;8.660;2022-10-23T13:42:11;21.30;99.90
17341;DHT22;8788;49.930;8.660;2022-10-23T13:44:38;21.40;99.90
17341;DHT22;8788;49.930;8.660;2022-10-23T13:47:08;21.40;99.90
17341;DHT22;8788;49.930;8.660;2022-10-23T13:49:38;21.40;99.90
17341;DHT22;8788;49.930;8.660;2022-10-23T13:52:08;21.30;99.90
17341;DHT22;8788;49.930;8.660;2022-10-23T13:54:37;21.30;99.90
17341;DHT22;8788;49.930;8.660;2022-10-23T13:57:08;21.20;99.90
17341;DHT22;8788;49.930;8.660;2022-10-23T13:59:37;21.10;99.90
17341;DHT22;8788;49.930;8.660;2022-10-23T14:02:14;21.10;99.90
17341;DHT22;8788;49.930;8.660;2022-10-23T14:04:45;21.00;99.90
17341;DHT22;8788;49.930;8.660;2022-10-23T14:07:12;21.00;99.90
17341;DHT22;8788;49.930;8.660;2022-10-23T14:09:39;20.90;99.90
17341;DHT22;8788;49.930;8.660;2022-10-23T14:12:06;20.90;99.90
17341;DHT22;8788;49.930;8.660;2022-10-23T14:14:33;20.80;99.90
17341;DHT22;8788;49.930;8.660;2022-10-23T14:17:00;20.90;99.90
17341;DHT22;8788;49.930;8.660;2022-10-23T14:19:27;21.00;99.90
17341;DHT22;8788;49.930;8.660;2022-10-23T14:21:56;21.10;99.90
17341;DHT22;8788;49.930;8.660;2022-10-23T14:24:23;21.20;99.90
17341;DHT22;8788;49.930;8.660;2022-10-23T14:26:50;21.20;99.90
17341;DHT22;8788;49.930;8.660;2022-10-23T14:29:17;21.30;99.90
17341;DHT22;8788;49.930;8.660;2022-10-23T14:31:44;21.30;99.90
17341;DHT22;8788;49.930;8.660;2022-10-23T14:34:11;21.30;99.90
17341;DHT22;8788;49.930;8.660;2022-10-23T14:36:38;21.20;99.90
17341;DHT22;8788;49.930;8.660;2022-10-23T14:39:07;21.10;99.90
17341;DHT22;8788;49.930;8.660;2022-10-23T14:41:34;20.90;99.90
17341;DHT22;8788;49.930;8.660;2022-10-23T14:44:02;20.80;99.90
17341;DHT22;8788;49.930;8.660;2022-10-23T14:46:29;20.70;99.90
17341;DHT22;8788;49.930;8.660;2022-10-23T14:48:56;20.80;99.90
17341;DHT22;8788;49.930;8.660;2022-10-23T14:51:24;20.70;99.90
17341;DHT22;8788;49.930;8.660;2022-10-23T14:53:54;20.70;99.90
17341;DHT22;8788;49.930;8.660;2022-10-23T14:56:25;20.50;99.90
17341;DHT22;8788;49.930;8.660;2022-10-23T14:58:52;20.50;99.90
17341;DHT22;8788;49.930;8.660;2022-10-23T15:01:19;20.40;99.90
17341;DHT22;8788;49.930;8.660;2022-10-23T15:03:46;20.30;99.90
17341;DHT22;8788;49.930;8.660;2022-10-23T15:06:19;20.20;99.90
17341;DHT22;8788;49.930;8.660;2022-10-23T15:08:48;20.20;99.90
17341;DHT22;8788;49.930;8.660;2022-10-23T15:11:15;20.10;99.90
17341;DHT22;8788;49.930;8.660;2022-10-23T15:13:44;20.10;99.90
17341;DHT22;8788;49.930;8.660;2022-10-23T15:16:11;20.10;99.90
17341;DHT22;8788;49.930;8.660;2022-10-23T15:18:38;20.10;99.90
17341;DHT22;8788;49.930;8.660;2022-10-23T15:21:06;20.00;99.90
17341;DHT22;8788;49.930;8.660;2022-10-23T15:23:35;20.00;99.90
17341;DHT22;8788;49.930;8.660;2022-10-23T15:26:05;20.00;99.90
17341;DHT22;8788;49.930;8.660;2022-10-23T15:28:33;20.00;99.90
17341;DHT22;8788;49.930;8.660;2022-10-23T15:31:02;19.90;99.90
17341;DHT22;8788;49.930;8.660;2022-10-23T15:33:29;19.90;99.90
17341;DHT22;8788;49.930;8.660;2022-10-23T15:35:56;19.90;99.90
17341;DHT22;8788;49.930;8.660;2022-10-23T15:38:23;19.90;99.90
17341;DHT22;8788;49.930;8.660;2022-10-23T15:40:53;19.90;99.90
17341;DHT22;8788;49.930;8.660;2022-10-23T15:43:24;19.90;99.90
17341;DHT22;8788;49.930;8.660;2022-10-23T15:45:51;19.70;99.90
17341;DHT22;8788;49.930;8.660;2022-10-23T15:48:19;19.60;99.90
17341;DHT22;8788;49.930;8.660;2022-10-23T15:50:46;19.50;99.90
17341;DHT22;8788;49.930;8.660;2022-10-23T15:53:13;19.50;99.90
17341;DHT22;8788;49.930;8.660;2022-10-23T15:55:40;19.50;99.90
17341;DHT22;8788;49.930;8.660;2022-10-23T15:58:07;19.50;99.90
17341;DHT22;8788;49.930;8.660;2022-10-23T16:00:36;19.40;99.90
17341;DHT22;8788;49.930;8.660;2022-10-23T16:03:04;19.40;99.90
17341;DHT22;8788;49.930;8.660;2022-10-23T16:05:32;19.30;99.90
17341;DHT22;8788;49.930;8.660;2022-10-23T16:07:59;19.20;99.90
17341;DHT22;8788;49.930;8.660;2022-10-23T16:10:26;19.10;99.90
17341;DHT22;8788;49.930;8.660;2022-10-23T16:12:54;19.10;99.90
17341;DHT22;8788;49.930;8.660;2022-10-23T16:15:21;19.00;99.90
17341;DHT22;8788;49.930;8.660;2022-10-23T16:17:48;18.90;99.90
17341;DHT22;8788;49.930;8.660;2022-10-23T16:20:15;18.90;99.90
17341;DHT22;8788;49.930;8.660;2022-10-23T16:22:43;18.80;99.90
17341;DHT22;8788;49.930;8.660;2022-10-23T16:25:11;18.80;99.90
17341;DHT22;8788;49.930;8.660;2022-10-23T16:27:38;18.80;99.90
17341;DHT22;8788;49.930;8.660;2022-10-23T16:30:06;18.70;99.90
17341;DHT22;8788;49.930;8.660;2022-10-23T16:32:34;18.70;99.90
17341;DHT22;8788;49.930;8.660;2022-10-23T16:35:01;18.70;99.90
17341;DHT22;8788;49.930;8.660;2022-10-23T16:37:38;18.70;99.90
17341;DHT22;8788;49.930;8.660;2022-10-23T16:40:13;18.60;99.90
17341;DHT22;8788;49.930;8.660;2022-10-23T16:42:59;18.60;99.90
17341;DHT22;8788;49.930;8.660;2022-10-23T16:45:40;18.60;99.90
17341;DHT22;8788;49.930;8.660;2022-10-23T16:48:07;18.50;99.90
17341;DHT22;8788;49.930;8.660;2022-10-23T16:50:37;18.50;99.90
17341;DHT22;8788;49.930;8.660;2022-10-23T16:53:04;18.50;99.90
17341;DHT22;8788;49.930;8.660;2022-10-23T16:55:33;18.50;99.90
17341;DHT22;8788;49.930;8.660;2022-10-23T16:58:00;18.50;99.90
17341;DHT22;8788;49.930;8.660;2022-10-23T17:00:27;18.40;99.90
17341;DHT22;8788;49.930;8.660;2022-10-23T17:03:00;18.40;99.90
17341;DHT22;8788;49.930;8.660;2022-10-23T17:05:31;18.40;99.90
17341;DHT22;8788;49.930;8.660;2022-10-23T17:07:58;18.40;99.90
17341;DHT22;8788;49.930;8.660;2022-10-23T17:10:25;18.40;99.90
17341;DHT22;8788;49.930;8.660;2022-10-23T17:12:54;18.40;99.90
17341;DHT22;8788;49.930;8.660;2022-10-23T17:15:21;18.30;99.90
17341;DHT22;8788;49.930;8.660;2022-10-23T17:17:48;18.30;99.90
17341;DHT22;8788;49.930;8.660;2022-10-23T17:20:15;18.30;99.90
17341;DHT22;8788;49.930;8.660;2022-10-23T17:22:42;18.30;99.90
17341;DHT22;8788;49.930;8.660;2022-10-23T17:25:09;18.30;99.90
17341;DHT22;8788;49.930;8.660;2022-10-23T17:27:37;18.20;99.90
17341;DHT22;8788;49.930;8.660;2022-10-23T17:30:07;18.20;99.90
17341;DHT22;8788;49.930;8.660;2022-10-23T17:32:34;18.10;99.90
17341;DHT22;8788;49.930;8.660;2022-10-23T17:35:03;18.10;99.90
17341;DHT22;8788;49.930;8.660;2022-10-23T17:37:30;18.10;99.90
17341;DHT22;8788;49.930;8.660;2022-10-23T17:39:58;18.00;99.90
17341;DHT22;8788;49.930;8.660;2022-10-23T17:42:27;18.00;99.90
17341;DHT22;8788;49.930;8.660;2022-10-23T17:44:54;18.00;99.90
17341;DHT22;8788;49.930;8.660;2022-10-23T17:47:23;17.90;99.90
17341;DHT22;8788;49.930;8.660;2022-10-23T17:49:50;17.90;99.90
17341;DHT22;8788;49.930;8.660;2022-10-23T17:52:17;17.80;99.90
17341;DHT22;8788;49.930;8.660;2022-10-23T17:54:44;17.70;99.90
17341;DHT22;8788;49.930;8.660;2022-10-23T17:57:11;17.70;99.90
17341;DHT22;8788;49.930;8.660;2022-10-23T17:59:38;17.70;99.90
17341;DHT22;8788;49.930;8.660;2022-10-23T18:02:05;17.60;99.90
17341;DHT22;8788;49.930;8.660;2022-10-23T18:04:34;17.60;99.90
17341;DHT22;8788;49.930;8.660;2022-10-23T18:07:01;17.70;99.90
17341;DHT22;8788;49.930;8.660;2022-10-23T18:09:28;17.60;99.90
17341;DHT22;8788;49.930;8.660;2022-10-23T18:11:55;17.60;99.90
17341;DHT22;8788;49.930;8.660;2022-10-23T18:14:22;17.60;99.90
17341;DHT22;8788;49.930;8.660;2022-10-23T18:16:49;17.60;99.90
17341;DHT22;8788;49.930;8.660;2022-10-23T18:19:17;17.60;99.90
17341;DHT22;8788;49.930;8.660;2022-10-23T18:21:46;17.60;99.90
17341;DHT22;8788;49.930;8.660;2022-10-23T18:24:14;17.60;99.90
17341;DHT22;8788;49.930;8.660;2022-10-23T18:26:42;17.60;99.90
17341;DHT22;8788;49.930;8.660;2022-10-23T18:29:11;17.60;99.90
17341;DHT22;8788;49.930;8.660;2022-10-23T18:31:38;17.60;99.90
17341;DHT22;8788;49.930;8.660;2022-10-23T18:34:10;17.60;99.90
17341;DHT22;8788;49.930;8.660;2022-10-23T18:36:39;17.60;99.90
17341;DHT22;8788;49.930;8.660;2022-10-23T18:39:13;17.70;99.90
17341;DHT22;8788;49.930;8.660;2022-10-23T18:41:42;17.70;99.90
17341;DHT22;8788;49.930;8.660;2022-10-23T18:44:12;17.60;99.90
17341;DHT22;8788;49.930;8.660;2022-10-23T18:46:40;17.60;99.90
17341;DHT22;8788;49.930;8.660;2022-10-23T18:49:07;17.60;99.90
17341;DHT22;8788;49.930;8.660;2022-10-23T18:51:35;17.60;99.90
17341;DHT22;8788;49.930;8.660;2022-10-23T18:54:05;17.60;99.90
17341;DHT22;8788;49.930;8.660;2022-10-23T18:56:33;17.70;99.90
17341;DHT22;8788;49.930;8.660;2022-10-23T18:59:02;17.70;99.90
17341;DHT22;8788;49.930;8.660;2022-10-23T19:01:30;17.70;99.90
17341;DHT22;8788;49.930;8.660;2022-10-23T19:03:59;17.70;99.90
17341;DHT22;8788;49.930;8.660;2022-10-23T19:06:26;17.70;99.90
17341;DHT22;8788;49.930;8.660;2022-10-23T19:08:54;17.70;99.90
17341;DHT22;8788;49.930;8.660;2022-10-23T19:11:23;17.70;99.90
17341;DHT22;8788;49.930;8.660;2022-10-23T19:13:52;17.70;99.90
17341;DHT22;8788;49.930;8.660;2022-10-23T19:16:22;17.70;99.90
17341;DHT22;8788;49.930;8.660;2022-10-23T19:18:53;17.70;99.90
17341;DHT22;8788;49.930;8.660;2022-10-23T19:21:23;17.70;99.90
17341;DHT22;8788;49.930;8.660;2022-10-23T19:23:56;17.70;99.90
17341;DHT22;8788;49.930;8.660;2022-10-23T19:26:25;17.70;99.90
17341;DHT22;8788;49.930;8.660;2022-10-23T19:28:54;17.60;99.90
17341;DHT22;8788;49.930;8.660;2022-10-23T19:31:22;17.60;99.90
17341;DHT22;8788;49.930;8.660;2022-10-23T19:33:51;17.50;99.90
17341;DHT22;8788;49.930;8.660;2022-10-23T19:36:18;17.50;99.90
17341;DHT22;8788;49.930;8.660;2022-10-23T19:38:45;17.40;99.90
17341;DHT22;8788;49.930;8.660;2022-10-23T19:41:12;17.40;99.90
17341;DHT22;8788;49.930;8.660;2022-10-23T19:43:40;17.40;99.90
17341;DHT22;8788;49.930;8.660;2022-10-23T19:46:09;17.30;99.90
17341;DHT22;8788;49.930;8.660;2022-10-23T19:48:36;17.30;99.90
17341;DHT22;8788;49.930;8.660;2022-10-23T19:51:07;17.20;99.90
17341;DHT22;8788;49.930;8.660;2022-10-23T19:53:34;17.20;99.90
17341;DHT22;8788;49.930;8.660;2022-10-23T19:56:02;17.20;99.90
17341;DHT22;8788;49.930;8.660;2022-10-23T19:58:29;17.20;99.90
17341;DHT22;8788;49.930;8.660;2022-10-23T20:00:56;17.30;99.90
17341;DHT22;8788;49.930;8.660;2022-10-23T20:03:25;17.30;99.90
17341;DHT22;8788;49.930;8.660;2022-10-23T20:05:52;17.30;99.90
17341;DHT22;8788;49.930;8.660;2022-10-23T20:08:19;17.30;99.90
17341;DHT22;8788;49.930;8.660;2022-10-23T20:10:46;17.30;99.90
17341;DHT22;8788;49.930;8.660;2022-10-23T20:13:13;17.30;99.90
17341;DHT22;8788;49.930;8.660;2022-10-23T20:15:40;17.30;99.90
17341;DHT22;8788;49.930;8.660;2022-10-23T20:18:07;17.30;99.90
17341;DHT22;8788;49.930;8.660;2022-10-23T20:20:40;17.30;99.90
17341;DHT22;8788;49.930;8.660;2022-10-23T20:23:07;17.30;99.90